NCAR-RAP Real-Time Weather Data

Output produced by METARs form (14 June 2021  06:28 UTC)
found at http://weather.rap.ucar.edu/surface/
 
KAPN 140554Z AUTO 25005KT 10SM BKN100 17/12 A2988 RMK AO2 RAB11E27 SLP117 P0000 60000 T01670122 10244 20167 55001
KAPN 140454Z AUTO 30007KT 10SM OVC100 18/12 A2988 RMK AO2 RAB33E44 SLP114 P0000 T01780117 402890122
KAPN 140354Z AUTO 31009G20KT 10SM SCT120 20/12 A2989 RMK AO2 SLP119 T02000117
KAPN 140254Z AUTO 30005KT 10SM FEW120 21/12 A2989 RMK AO2 SLP118 T02060117 53009
KAPN 140154Z AUTO 27005KT 10SM CLR 21/13 A2986 RMK AO2 SLP110 T02110128
KAPN 140054Z AUTO 00000KT 10SM CLR 23/12 A2986 RMK AO2 SLP110 T02280117
KAPN 132354Z AUTO 34007KT 10SM CLR 24/10 A2986 RMK AO2 SLP110 T02440100 10289 20244 58007
KAPN 132254Z AUTO 32011G16KT 10SM CLR 26/09 A2988 RMK AO2 SLP115 T02610094
KAPN 132154Z AUTO 33015KT 10SM CLR 27/09 A2988 RMK AO2 SLP117 T02670094
KAPN 132054Z AUTO 33014G23KT 10SM CLR 28/10 A2988 RMK AO2 PK WND 35026/2007 SLP117 T02780100 58007
KAPN 131954Z AUTO 34017G27KT 10SM FEW070 28/09 A2989 RMK AO2 PK WND 35027/1948 SLP120 T02780094
KAPN 131854Z AUTO 32013G20KT 10SM FEW060 28/11 A2990 RMK AO2 SLP121 T02780106
KAPN 131754Z AUTO 34010G15KT 10SM FEW055 28/13 A2990 RMK AO2 SLP123 T02780128 10278 20161 58006
KAPN 131654Z AUTO 32009KT 10SM SCT042 SCT050 26/14 A2991 RMK AO2 SLP128 T02610144
KAPN 131554Z AUTO VRB04KT 10SM CLR 25/14 A2992 RMK AO2 SLP132 T02500139
KAPN 131454Z AUTO 33010KT 10SM CLR 23/14 A2992 RMK AO2 SLP131 T02330139 58000
KAPN 131354Z AUTO 32009KT 10SM CLR 21/14 A2992 RMK AO2 SLP133 T02060139
KAPN 131254Z AUTO 31007KT 10SM CLR 19/14 A2992 RMK AO2 SLP132 T01890144
KAPN 131154Z AUTO 31003KT 10SM CLR 17/14 A2992 RMK AO2 SLP132 T01670139 10167 20122 51008
KAPN 131054Z AUTO 31005KT 10SM CLR 15/13 A2992 RMK AO2 SLP131 T01500133